Time;durP1;ratioP1;P1;durP2;ratioP2;P2;SDS_P1;SDS_P2;PMS_P1;PMS_P2;Temp;Humidity;BMP_temperature;BMP_pressure;BME280_temperature;BME280_humidity;BME280_pressure;Samples;Min_cycle;Max_cycle;Signal;HPM_P1;HPM_P2
2024/01/30 00:00:21;;;;;;;56.17;43.42;;;3.50;99.90;;;;;;4974260;28;20077;-80
2024/01/30 00:02:47;;;;;;;62.90;44.45;;;3.40;99.90;;;;;;4975740;28;20046;-79
2024/01/30 00:05:14;;;;;;;61.97;46.88;;;3.40;99.90;;;;;;4968376;28;20065;-79
2024/01/30 00:07:41;;;;;;;65.40;46.08;;;3.30;99.90;;;;;;4975158;28;20578;-78
2024/01/30 00:10:08;;;;;;;59.50;45.92;;;3.20;99.90;;;;;;4969854;28;20050;-80
2024/01/30 00:12:35;;;;;;;59.72;44.92;;;3.00;99.90;;;;;;4991192;28;20053;-80
2024/01/30 00:15:04;;;;;;;64.18;47.10;;;2.80;99.90;;;;;;4969594;28;20069;-79
2024/01/30 00:17:31;;;;;;;62.72;46.22;;;2.80;99.90;;;;;;4959174;28;20045;-80
2024/01/30 00:19:57;;;;;;;55.97;42.60;;;2.70;99.90;;;;;;4976846;28;20077;-79
2024/01/30 00:22:24;;;;;;;55.15;44.05;;;2.50;99.90;;;;;;4972534;28;20313;-80
2024/01/30 00:24:51;;;;;;;61.67;45.08;;;2.40;99.90;;;;;;4975103;28;20070;-78
2024/01/30 00:27:18;;;;;;;63.55;44.92;;;2.40;99.90;;;;;;4975262;28;20190;-79
2024/01/30 00:29:45;;;;;;;64.57;46.97;;;2.60;99.90;;;;;;4960798;28;20053;-79
2024/01/30 00:32:14;;;;;;;64.00;47.30;;;2.70;99.90;;;;;;4985960;28;20050;-79
2024/01/30 00:34:42;;;;;;;62.25;46.85;;;2.60;99.90;;;;;;4994425;28;20708;-79
2024/01/30 00:37:09;;;;;;;63.83;48.08;;;2.60;99.90;;;;;;4975111;28;20505;-79
2024/01/30 00:39:35;;;;;;;61.95;47.28;;;2.50;99.90;;;;;;4958399;28;20046;-79
2024/01/30 00:42:02;;;;;;;61.05;47.67;;;2.60;99.90;;;;;;4989342;28;20052;-80
2024/01/30 00:44:29;;;;;;;65.25;48.60;;;2.60;99.90;;;;;;4952851;28;20042;-80
2024/01/30 00:46:56;;;;;;;66.82;48.25;;;2.60;99.90;;;;;;4973947;28;20695;-78
2024/01/30 00:49:23;;;;;;;71.57;48.53;;;2.70;99.90;;;;;;4975162;28;20054;-79
2024/01/30 00:51:50;;;;;;;77.50;51.50;;;2.80;99.90;;;;;;4973186;28;20462;-78
2024/01/30 00:54:17;;;;;;;75.53;49.50;;;2.90;99.90;;;;;;4956217;28;20048;-80
2024/01/30 00:56:44;;;;;;;70.07;48.90;;;2.90;99.90;;;;;;4958597;28;20160;-79
2024/01/30 00:59:11;;;;;;;69.88;46.38;;;2.90;99.90;;;;;;4960465;28;20132;-80
2024/01/30 01:01:38;;;;;;;61.30;43.22;;;2.90;99.90;;;;;;4988375;28;20049;-79
2024/01/30 01:04:05;;;;;;;63.08;42.15;;;2.80;99.90;;;;;;4971351;28;20050;-80
2024/01/30 01:06:32;;;;;;;60.08;43.22;;;2.80;99.90;;;;;;4986477;28;20109;-79
2024/01/30 01:08:58;;;;;;;63.67;44.90;;;2.70;99.90;;;;;;4973633;28;20080;-78
2024/01/30 01:11:28;;;;;;;70.97;45.13;;;2.80;99.90;;;;;;4974193;28;20050;-79
2024/01/30 01:13:55;;;;;;;71.03;43.95;;;2.80;99.90;;;;;;4969834;28;20061;-78
2024/01/30 01:16:21;;;;;;;72.35;46.42;;;2.80;99.90;;;;;;4949967;28;20578;-79
2024/01/30 01:18:48;;;;;;;72.88;46.88;;;2.90;99.90;;;;;;4993921;28;20044;-78
2024/01/30 01:21:15;;;;;;;76.45;50.55;;;3.10;99.90;;;;;;4977853;28;20048;-78
2024/01/30 01:23:42;;;;;;;75.18;51.15;;;3.00;99.90;;;;;;5002242;28;20047;-76
2024/01/30 01:26:09;;;;;;;79.63;51.28;;;3.20;99.90;;;;;;5020861;28;20026;-78
2024/01/30 01:28:36;;;;;;;76.80;51.03;;;3.20;99.90;;;;;;4983265;28;20049;-80
2024/01/30 01:31:05;;;;;;;74.60;49.40;;;3.30;99.90;;;;;;4977073;28;20084;-78
2024/01/30 01:33:33;;;;;;;81.78;53.53;;;3.10;99.90;;;;;;4990363;28;20618;-78
2024/01/30 01:36:02;;;;;;;81.38;53.13;;;3.00;99.90;;;;;;4970100;28;20073;-78
2024/01/30 01:38:29;;;;;;;77.68;52.40;;;3.00;99.90;;;;;;4967683;28;20044;-79
2024/01/30 01:40:56;;;;;;;78.07;51.92;;;3.00;99.90;;;;;;4973731;28;20064;-76
2024/01/30 01:43:22;;;;;;;90.35;54.13;;;3.10;99.90;;;;;;4982560;28;20057;-78
2024/01/30 01:45:49;;;;;;;87.40;53.70;;;2.90;99.90;;;;;;4949504;28;20060;-79
2024/01/30 01:48:16;;;;;;;90.63;54.20;;;3.00;99.90;;;;;;4973898;28;20753;-79
2024/01/30 01:50:43;;;;;;;91.88;53.25;;;2.90;99.90;;;;;;4975785;28;20058;-78
2024/01/30 01:53:11;;;;;;;78.68;50.08;;;2.80;99.90;;;;;;4955233;28;20042;-79
2024/01/30 01:55:38;;;;;;;81.38;51.72;;;2.80;99.90;;;;;;4968569;28;20519;-79
2024/01/30 01:58:05;;;;;;;79.13;51.75;;;2.90;99.90;;;;;;4972017;28;20046;-78
2024/01/30 02:00:32;;;;;;;79.97;50.63;;;3.00;99.90;;;;;;4970446;28;20159;-78
2024/01/30 02:03:01;;;;;;;84.82;52.80;;;2.80;99.90;;;;;;4956478;28;20057;-79
2024/01/30 02:05:28;;;;;;;74.15;49.42;;;2.80;99.90;;;;;;4966133;28;20042;-78
2024/01/30 02:07:55;;;;;;;87.70;51.58;;;2.80;99.90;;;;;;4973270;28;20053;-79
2024/01/30 02:10:22;;;;;;;86.38;51.72;;;2.80;99.90;;;;;;4989371;28;20053;-79
2024/01/30 02:12:52;;;;;;;78.32;52.08;;;2.90;99.90;;;;;;4986568;28;20045;-79
2024/01/30 02:15:19;;;;;;;76.45;53.03;;;2.90;99.90;;;;;;4948267;28;20057;-78
2024/01/30 02:17:45;;;;;;;83.53;53.13;;;2.90;99.90;;;;;;4955965;28;20787;-78
2024/01/30 02:20:13;;;;;;;83.72;53.70;;;3.00;99.90;;;;;;4972472;28;20069;-78
2024/01/30 02:22:41;;;;;;;85.95;52.58;;;3.10;99.90;;;;;;4988448;28;20046;-79
2024/01/30 02:25:08;;;;;;;86.70;55.05;;;3.10;99.90;;;;;;4971716;28;20049;-79
2024/01/30 02:27:35;;;;;;;87.43;53.35;;;3.00;99.90;;;;;;4968764;28;20096;-80
2024/01/30 02:30:01;;;;;;;91.32;55.05;;;2.90;99.90;;;;;;4954686;28;20054;-78
2024/01/30 02:32:28;;;;;;;82.63;53.75;;;2.80;99.90;;;;;;4973382;28;20062;-78
2024/01/30 02:34:55;;;;;;;85.32;54.95;;;2.70;99.90;;;;;;4976866;28;20200;-78
2024/01/30 02:37:22;;;;;;;95.45;56.58;;;2.70;99.90;;;;;;4967423;28;20042;-78
2024/01/30 02:39:48;;;;;;;105.45;56.50;;;2.90;99.90;;;;;;4971094;28;20046;-79
2024/01/30 02:42:15;;;;;;;87.45;55.95;;;2.90;99.90;;;;;;4967764;28;20042;-79
2024/01/30 02:44:42;;;;;;;94.20;56.08;;;2.90;99.90;;;;;;4965896;28;20042;-80
2024/01/30 02:47:08;;;;;;;94.40;54.70;;;2.80;99.90;;;;;;4984797;28;20045;-78
2024/01/30 02:49:35;;;;;;;96.00;54.83;;;2.90;99.90;;;;;;4987746;28;20525;-78
2024/01/30 02:52:03;;;;;;;86.72;53.00;;;3.00;99.90;;;;;;4954029;28;20057;-78
2024/01/30 02:54:30;;;;;;;79.50;51.67;;;3.00;99.90;;;;;;4974808;28;20041;-79
2024/01/30 02:56:57;;;;;;;79.25;49.50;;;2.90;99.90;;;;;;4953516;28;20073;-78
2024/01/30 02:59:24;;;;;;;85.95;49.55;;;3.10;99.90;;;;;;4967984;28;20045;-79
2024/01/30 03:01:51;;;;;;;79.28;51.58;;;3.20;99.90;;;;;;4968411;28;20038;-77
2024/01/30 03:04:18;;;;;;;83.05;48.97;;;3.30;99.90;;;;;;4973377;28;20681;-78
2024/01/30 03:06:46;;;;;;;85.80;50.85;;;3.30;99.90;;;;;;4983684;28;20042;-79
2024/01/30 03:09:15;;;;;;;88.72;50.60;;;3.30;99.90;;;;;;4967484;28;20129;-80
2024/01/30 03:11:42;;;;;;;79.00;50.33;;;3.30;99.90;;;;;;4952854;28;20053;-78
2024/01/30 03:14:10;;;;;;;71.35;47.95;;;3.30;99.90;;;;;;4976862;28;20050;-78
2024/01/30 03:16:38;;;;;;;79.53;48.60;;;3.30;99.90;;;;;;4967222;28;20097;-79
2024/01/30 03:19:08;;;;;;;83.93;50.13;;;3.40;99.90;;;;;;4967103;28;20074;-78
2024/01/30 03:21:36;;;;;;;87.50;50.00;;;3.40;99.90;;;;;;4977501;28;20069;-79
2024/01/30 03:24:02;;;;;;;78.63;49.35;;;3.40;99.90;;;;;;4972052;28;20125;-78
2024/01/30 03:26:29;;;;;;;83.03;50.97;;;3.40;99.90;;;;;;4971544;28;20077;-79
2024/01/30 03:28:56;;;;;;;79.53;48.47;;;3.40;99.90;;;;;;4987986;28;20042;-80
2024/01/30 03:31:23;;;;;;;87.43;48.67;;;3.30;99.90;;;;;;4958147;28;20052;-79
2024/01/30 03:33:50;;;;;;;78.60;46.75;;;3.30;99.90;;;;;;4975579;28;20052;-80
2024/01/30 03:36:17;;;;;;;85.30;48.53;;;3.40;99.90;;;;;;4948097;28;20045;-77
2024/01/30 03:38:44;;;;;;;85.13;49.58;;;3.20;99.90;;;;;;4964297;28;20109;-78
2024/01/30 03:41:10;;;;;;;74.20;49.28;;;3.30;99.90;;;;;;4969678;28;20089;-79
2024/01/30 03:43:37;;;;;;;79.30;49.70;;;3.30;99.90;;;;;;4971091;28;21096;-78
2024/01/30 03:46:04;;;;;;;76.72;52.35;;;3.40;99.90;;;;;;4964988;28;20041;-80
2024/01/30 03:48:31;;;;;;;86.60;52.72;;;3.50;99.90;;;;;;4991109;28;20084;-80
2024/01/30 03:50:58;;;;;;;77.75;52.17;;;3.50;99.90;;;;;;4987682;28;20327;-79
2024/01/30 03:53:25;;;;;;;80.38;54.38;;;3.50;99.90;;;;;;4989062;28;20062;-80
2024/01/30 03:55:52;;;;;;;90.85;53.05;;;3.50;99.90;;;;;;4978773;28;20046;-78
2024/01/30 03:58:18;;;;;;;83.00;53.38;;;3.40;99.90;;;;;;4960574;28;20150;-80
2024/01/30 04:00:45;;;;;;;89.00;54.75;;;3.40;99.90;;;;;;4973468;28;20170;-79
2024/01/30 04:03:12;;;;;;;102.32;58.25;;;3.30;99.90;;;;;;4978915;28;20073;-78
2024/01/30 04:05:39;;;;;;;87.13;53.70;;;3.40;99.90;;;;;;4976023;28;20160;-80
2024/01/30 04:08:06;;;;;;;81.50;53.72;;;3.30;99.90;;;;;;4974995;28;20108;-79
2024/01/30 04:10:33;;;;;;;91.50;56.08;;;3.20;99.90;;;;;;4975531;28;20109;-79
2024/01/30 04:13:00;;;;;;;93.47;53.90;;;3.20;99.90;;;;;;4976763;28;20030;-79
2024/01/30 04:15:29;;;;;;;93.53;54.50;;;3.20;99.90;;;;;;4972623;28;20049;-78
2024/01/30 04:17:59;;;;;;;86.13;53.00;;;3.20;99.90;;;;;;4978387;28;20062;-77
2024/01/30 04:20:26;;;;;;;86.75;52.42;;;3.20;99.90;;;;;;4978533;28;20070;-79
2024/01/30 04:22:53;;;;;;;79.75;49.35;;;3.20;99.90;;;;;;4993113;28;20065;-77
2024/01/30 04:25:20;;;;;;;84.22;49.53;;;3.30;99.90;;;;;;4976413;28;20038;-78
2024/01/30 04:27:47;;;;;;;85.72;49.42;;;3.30;99.90;;;;;;4964793;28;20050;-78
2024/01/30 04:30:14;;;;;;;91.20;48.72;;;3.30;99.90;;;;;;4978221;28;20084;-78
2024/01/30 04:32:41;;;;;;;75.65;46.78;;;3.40;99.90;;;;;;4962850;28;20053;-78
2024/01/30 04:35:08;;;;;;;82.18;48.10;;;3.40;99.90;;;;;;4973556;28;20112;-78
2024/01/30 04:37:38;;;;;;;129.75;53.22;;;3.50;99.90;;;;;;4968200;28;20835;-78
2024/01/30 04:40:05;;;;;;;78.85;47.75;;;3.50;99.90;;;;;;4990262;28;20114;-78
2024/01/30 04:42:32;;;;;;;89.75;49.63;;;3.60;99.90;;;;;;4971821;28;20042;-78
2024/01/30 04:44:59;;;;;;;86.18;48.45;;;3.60;99.90;;;;;;4965455;28;20105;-78
2024/01/30 04:47:26;;;;;;;84.88;48.38;;;3.60;99.90;;;;;;4969653;28;20037;-77
2024/01/30 04:49:53;;;;;;;83.13;49.60;;;3.50;99.90;;;;;;5005179;28;20074;-77
2024/01/30 04:52:20;;;;;;;95.68;53.13;;;3.60;99.90;;;;;;4995014;28;20148;-78
2024/01/30 04:54:47;;;;;;;88.82;49.95;;;3.70;99.90;;;;;;4972020;28;20056;-80
2024/01/30 04:57:14;;;;;;;107.15;55.58;;;3.60;99.90;;;;;;4972827;28;20042;-79
2024/01/30 04:59:41;;;;;;;85.72;50.45;;;3.60;99.90;;;;;;4972305;28;20056;-77
2024/01/30 05:02:07;;;;;;;105.15;55.42;;;3.60;99.90;;;;;;4954342;28;20030;-77
2024/01/30 05:04:34;;;;;;;99.72;52.60;;;3.60;99.90;;;;;;4970693;28;20056;-79
2024/01/30 05:07:02;;;;;;;96.68;54.80;;;3.50;99.90;;;;;;4956049;28;20121;-76
2024/01/30 05:09:28;;;;;;;91.68;55.00;;;3.50;99.90;;;;;;4971568;28;20056;-78
2024/01/30 05:11:55;;;;;;;136.90;55.50;;;3.50;99.90;;;;;;4971616;28;20050;-79
2024/01/30 05:14:22;;;;;;;82.50;53.13;;;3.50;99.90;;;;;;4952604;28;20049;-77
2024/01/30 05:16:49;;;;;;;98.90;54.40;;;3.50;99.90;;;;;;4966617;28;20050;-79
2024/01/30 05:19:17;;;;;;;76.07;49.08;;;3.50;99.90;;;;;;4972039;28;20049;-77
2024/01/30 05:21:44;;;;;;;87.10;51.63;;;3.50;99.90;;;;;;4988937;28;20517;-79
2024/01/30 05:24:11;;;;;;;91.47;52.03;;;3.50;99.90;;;;;;4951573;28;20046;-78
2024/01/30 05:26:38;;;;;;;96.43;53.55;;;3.40;99.90;;;;;;4972597;28;20084;-78
2024/01/30 05:29:05;;;;;;;97.93;54.63;;;3.50;99.90;;;;;;4970755;28;20071;-78
2024/01/30 05:31:32;;;;;;;98.93;54.20;;;3.50;99.90;;;;;;4971337;28;20038;-78
2024/01/30 05:33:59;;;;;;;93.57;53.58;;;3.40;99.90;;;;;;4972915;28;20058;-78
2024/01/30 05:36:27;;;;;;;97.78;53.20;;;3.50;99.90;;;;;;4966417;28;20042;-81
2024/01/30 05:38:53;;;;;;;88.60;52.55;;;3.60;99.90;;;;;;4970556;28;20101;-78
2024/01/30 05:41:23;;;;;;;101.82;53.55;;;3.60;99.90;;;;;;4970264;28;20061;-80
2024/01/30 05:43:49;;;;;;;87.43;52.47;;;3.60;99.90;;;;;;4983935;28;20133;-80
2024/01/30 05:46:16;;;;;;;96.75;51.00;;;3.60;99.90;;;;;;4952798;28;20045;-78
2024/01/30 05:48:43;;;;;;;85.25;52.60;;;3.50;99.90;;;;;;4969800;28;20058;-79
2024/01/30 05:51:10;;;;;;;99.03;52.08;;;3.40;99.90;;;;;;4969815;28;20070;-79
2024/01/30 05:53:37;;;;;;;108.55;54.03;;;3.40;99.90;;;;;;4968269;28;20053;-79
2024/01/30 05:56:05;;;;;;;98.97;53.60;;;3.40;99.90;;;;;;4953542;28;20454;-78
2024/01/30 05:58:31;;;;;;;93.93;52.40;;;3.30;99.90;;;;;;4966869;28;20276;-80
2024/01/30 06:00:58;;;;;;;90.90;53.85;;;3.30;99.90;;;;;;4970077;28;20057;-79
2024/01/30 06:03:25;;;;;;;102.38;56.45;;;3.40;99.90;;;;;;4970411;28;20050;-78
2024/01/30 06:05:52;;;;;;;103.28;54.47;;;3.40;99.90;;;;;;4984487;28;20046;-79
2024/01/30 06:08:19;;;;;;;96.18;54.80;;;3.40;99.90;;;;;;4963021;28;20069;-79
2024/01/30 06:10:47;;;;;;;94.22;52.53;;;3.30;99.90;;;;;;4988015;28;20627;-78
2024/01/30 06:13:14;;;;;;;90.93;52.83;;;3.30;99.90;;;;;;4969506;28;20046;-79
2024/01/30 06:15:41;;;;;;;95.40;53.92;;;3.40;99.90;;;;;;4981177;28;20121;-79
2024/01/30 06:18:08;;;;;;;97.80;53.97;;;3.30;99.90;;;;;;4968259;28;20058;-78
2024/01/30 06:20:35;;;;;;;100.90;53.75;;;3.30;99.90;;;;;;4957976;28;20070;-80
2024/01/30 06:23:02;;;;;;;88.10;52.60;;;3.30;99.90;;;;;;4985219;28;20430;-79
2024/01/30 06:25:29;;;;;;;83.50;50.60;;;3.30;99.90;;;;;;4967522;28;20056;-79
2024/01/30 06:27:56;;;;;;;95.25;56.72;;;3.30;99.90;;;;;;4953378;28;20062;-79
2024/01/30 06:30:22;;;;;;;111.95;58.47;;;3.40;99.90;;;;;;4949549;28;20541;-78
2024/01/30 06:32:49;;;;;;;88.22;54.03;;;3.40;99.90;;;;;;4969196;28;20629;-79
2024/01/30 06:35:17;;;;;;;92.05;54.38;;;3.30;99.90;;;;;;4964006;28;20052;-78
2024/01/30 06:37:44;;;;;;;89.70;54.72;;;3.20;99.90;;;;;;4983639;28;20057;-79
2024/01/30 06:40:11;;;;;;;100.18;57.20;;;3.40;99.90;;;;;;4980606;28;20252;-79
2024/01/30 06:42:38;;;;;;;90.80;54.03;;;3.30;99.90;;;;;;4971273;28;20056;-79
2024/01/30 06:45:05;;;;;;;88.35;54.97;;;3.20;99.90;;;;;;4983368;28;20053;-78
2024/01/30 06:47:32;;;;;;;97.88;57.88;;;3.20;99.90;;;;;;4987439;28;20042;-78
2024/01/30 06:49:59;;;;;;;95.72;57.58;;;3.30;99.90;;;;;;4953433;28;20486;-81
2024/01/30 06:52:26;;;;;;;99.13;56.78;;;3.20;99.90;;;;;;4965722;28;20202;-80
2024/01/30 06:54:54;;;;;;;95.45;55.10;;;3.20;99.90;;;;;;4969933;28;20045;-78
2024/01/30 06:57:21;;;;;;;94.28;53.17;;;3.10;99.90;;;;;;4984566;28;20514;-79
2024/01/30 06:59:48;;;;;;;85.18;51.45;;;3.10;99.90;;;;;;4967640;28;20399;-80
2024/01/30 07:02:14;;;;;;;89.97;51.65;;;3.30;99.90;;;;;;4966596;28;20100;-81
2024/01/30 07:04:41;;;;;;;93.68;52.35;;;3.30;99.90;;;;;;4988615;28;20046;-79
2024/01/30 07:07:14;;;;;;;98.07;54.28;;;3.30;99.90;;;;;;4953911;28;20045;-79
2024/01/30 07:09:41;;;;;;;89.82;51.22;;;3.40;99.90;;;;;;4970282;28;20046;-79
2024/01/30 07:12:08;;;;;;;84.00;49.47;;;3.30;99.90;;;;;;4969923;28;20072;-80
2024/01/30 07:14:35;;;;;;;85.88;49.00;;;3.30;99.90;;;;;;4968759;28;21259;-83
2024/01/30 07:17:02;;;;;;;89.97;49.60;;;3.40;99.90;;;;;;4990299;28;20049;-82
2024/01/30 07:19:29;;;;;;;94.30;51.38;;;3.40;99.90;;;;;;4975161;28;20056;-83
2024/01/30 07:21:56;;;;;;;98.57;50.97;;;3.40;99.90;;;;;;4958177;28;20081;-81
2024/01/30 07:24:23;;;;;;;81.70;47.40;;;3.40;99.90;;;;;;4969288;28;20074;-82
2024/01/30 07:26:50;;;;;;;91.85;51.25;;;3.30;99.90;;;;;;4969754;28;20042;-82
2024/01/30 07:29:17;;;;;;;98.18;52.58;;;3.50;99.90;;;;;;4962606;28;20189;-81
2024/01/30 07:31:44;;;;;;;104.15;54.35;;;3.50;99.90;;;;;;4960785;28;20048;-82
2024/01/30 07:34:12;;;;;;;87.47;53.30;;;3.60;99.90;;;;;;4976096;28;20049;-80
2024/01/30 07:36:39;;;;;;;103.63;52.90;;;3.60;99.90;;;;;;4971258;28;20046;-81
2024/01/30 07:39:06;;;;;;;84.45;49.63;;;3.60;99.90;;;;;;4976114;28;20038;-81
2024/01/30 07:41:33;;;;;;;94.20;53.85;;;3.50;99.90;;;;;;4959178;28;20736;-82
2024/01/30 07:43:59;;;;;;;104.15;55.10;;;3.50;99.90;;;;;;4988175;28;20097;-81
2024/01/30 07:46:26;;;;;;;91.40;51.40;;;3.40;99.90;;;;;;4970735;28;20056;-82
2024/01/30 07:48:55;;;;;;;96.95;52.60;;;3.40;99.90;;;;;;4976620;28;20674;-82
2024/01/30 07:51:22;;;;;;;88.43;51.08;;;3.40;99.90;;;;;;4973797;28;20081;-83
2024/01/30 07:53:49;;;;;;;88.50;51.90;;;3.50;99.90;;;;;;4958910;28;20171;-81
2024/01/30 07:56:16;;;;;;;95.00;54.83;;;3.50;99.90;;;;;;4970434;28;20098;-81
2024/01/30 07:58:43;;;;;;;90.30;55.17;;;3.60;99.90;;;;;;4957918;28;20567;-83
2024/01/30 08:01:09;;;;;;;94.85;55.25;;;3.60;99.90;;;;;;4952400;28;20042;-78
2024/01/30 08:03:39;;;;;;;96.82;57.05;;;3.70;99.90;;;;;;4972873;28;20069;-77
2024/01/30 08:06:06;;;;;;;87.57;55.58;;;3.80;99.90;;;;;;4975658;28;20050;-77
2024/01/30 08:08:33;;;;;;;95.65;58.58;;;3.80;99.90;;;;;;5003018;28;20041;-78
2024/01/30 08:11:01;;;;;;;89.40;55.92;;;3.90;99.90;;;;;;4976492;28;20108;-78
2024/01/30 08:13:28;;;;;;;108.22;58.58;;;4.00;99.90;;;;;;4971925;28;20096;-78
2024/01/30 08:15:54;;;;;;;93.65;57.33;;;4.00;99.90;;;;;;4957363;28;20046;-77
2024/01/30 08:18:21;;;;;;;94.53;58.40;;;4.10;99.90;;;;;;4967214;28;20030;-78
2024/01/30 08:20:49;;;;;;;88.93;58.97;;;4.10;99.90;;;;;;4955039;28;20691;-77
2024/01/30 08:23:15;;;;;;;98.72;59.33;;;4.20;99.90;;;;;;4992674;28;20077;-78
2024/01/30 08:25:42;;;;;;;94.03;61.30;;;4.30;99.90;;;;;;4972635;28;20605;-77
2024/01/30 08:28:09;;;;;;;106.05;65.53;;;4.30;99.90;;;;;;4973311;28;20068;-77
2024/01/30 08:30:36;;;;;;;97.88;65.35;;;4.30;99.90;;;;;;4973412;28;20299;-77
2024/01/30 08:33:03;;;;;;;87.50;60.22;;;4.40;99.90;;;;;;4961966;28;20107;-77
2024/01/30 08:35:33;;;;;;;93.72;63.55;;;4.40;99.90;;;;;;4976721;28;20069;-78
2024/01/30 08:38:01;;;;;;;86.07;62.28;;;4.50;99.90;;;;;;4994313;28;20066;-79
2024/01/30 08:40:28;;;;;;;103.68;72.72;;;4.50;99.90;;;;;;4974033;28;20050;-78
2024/01/30 08:42:55;;;;;;;85.45;62.58;;;4.70;99.90;;;;;;4973195;28;20078;-78
2024/01/30 08:45:22;;;;;;;95.78;65.53;;;4.70;99.90;;;;;;4982367;28;20042;-77
2024/01/30 08:47:49;;;;;;;96.70;66.78;;;4.70;99.90;;;;;;4958560;28;20042;-77
2024/01/30 08:50:16;;;;;;;115.63;76.50;;;4.70;99.90;;;;;;4973795;28;20101;-77
2024/01/30 08:52:43;;;;;;;75.75;61.90;;;4.80;99.90;;;;;;4973728;28;20107;-78
2024/01/30 08:55:12;;;;;;;90.55;66.20;;;4.80;99.90;;;;;;4974455;28;20070;-78
2024/01/30 08:57:39;;;;;;;82.30;62.03;;;5.00;99.90;;;;;;4968705;28;20078;-78
2024/01/30 09:00:08;;;;;;;87.88;63.42;;;5.10;99.90;;;;;;4976499;28;20050;-79
2024/01/30 09:02:35;;;;;;;94.63;64.45;;;5.20;99.90;;;;;;4981149;28;20046;-78
2024/01/30 09:05:02;;;;;;;93.30;62.67;;;5.30;99.90;;;;;;4996652;28;20046;-79
2024/01/30 09:07:29;;;;;;;100.43;68.53;;;5.50;99.90;;;;;;4974215;28;20060;-79
2024/01/30 09:09:56;;;;;;;118.97;68.75;;;5.50;99.90;;;;;;4958211;28;20498;-79
2024/01/30 09:12:23;;;;;;;92.57;62.67;;;5.50;99.90;;;;;;4979637;28;20050;-77
2024/01/30 09:14:50;;;;;;;88.47;62.17;;;5.50;99.90;;;;;;4958667;28;20062;-78
2024/01/30 09:17:17;;;;;;;77.00;54.70;;;5.60;99.90;;;;;;4960795;28;20052;-78
2024/01/30 09:19:44;;;;;;;72.18;49.97;;;5.60;99.90;;;;;;4954889;28;20054;-77
2024/01/30 09:22:10;;;;;;;61.47;45.83;;;5.60;99.90;;;;;;4963799;28;20169;-75
2024/01/30 09:24:37;;;;;;;54.20;40.83;;;5.70;99.90;;;;;;4987214;28;20647;-76
2024/01/30 09:27:04;;;;;;;48.00;38.47;;;5.80;99.90;;;;;;4960765;28;20253;-77
2024/01/30 09:29:34;;;;;;;47.75;37.53;;;5.90;99.90;;;;;;4975805;28;20054;-77
2024/01/30 09:32:01;;;;;;;49.58;37.92;;;6.00;99.90;;;;;;4956445;28;20074;-77
2024/01/30 09:34:27;;;;;;;44.60;35.67;;;6.10;99.90;;;;;;4948793;28;20041;-76
2024/01/30 09:36:54;;;;;;;43.15;32.92;;;6.20;99.90;;;;;;4974728;28;20729;-77
2024/01/30 09:39:21;;;;;;;44.50;33.67;;;6.40;99.90;;;;;;4974431;28;20042;-78
2024/01/30 09:42:02;;;;;;;42.42;34.33;;;6.50;99.90;;;;;;4972329;28;20038;-76
2024/01/30 09:44:30;;;;;;;40.83;34.22;;;6.60;99.90;;;;;;4966373;28;20046;-76
2024/01/30 09:47:03;;;;;;;44.92;35.38;;;6.70;99.90;;;;;;4970330;28;20721;-77
2024/01/30 09:49:32;;;;;;;45.70;35.47;;;6.80;99.90;;;;;;4970588;28;20056;-76
2024/01/30 09:52:01;;;;;;;37.72;33.70;;;6.90;99.90;;;;;;4974388;28;20049;-77
2024/01/30 09:54:31;;;;;;;37.10;33.22;;;7.10;99.90;;;;;;4956067;28;20909;-76
2024/01/30 09:57:00;;;;;;;37.60;33.72;;;7.10;99.90;;;;;;4975418;28;20096;-77
2024/01/30 09:59:27;;;;;;;40.25;35.33;;;7.30;99.90;;;;;;4958189;28;20056;-77
2024/01/30 10:01:54;;;;;;;39.95;33.28;;;7.50;99.90;;;;;;4968685;28;20126;-77
2024/01/30 10:04:21;;;;;;;37.17;33.45;;;7.60;99.90;;;;;;4972287;28;20442;-77
2024/01/30 10:06:48;;;;;;;37.03;33.13;;;7.80;99.90;;;;;;4955946;28;20066;-77
2024/01/30 10:09:15;;;;;;;36.72;33.13;;;7.90;99.90;;;;;;4972532;28;20049;-78
2024/01/30 10:11:42;;;;;;;41.88;35.45;;;8.00;99.90;;;;;;4967045;28;20844;-77
2024/01/30 10:14:09;;;;;;;38.55;34.78;;;8.10;99.90;;;;;;4959089;28;20059;-77
2024/01/30 10:16:36;;;;;;;38.38;34.33;;;8.30;99.90;;;;;;4980129;28;20046;-76
2024/01/30 10:19:03;;;;;;;38.28;34.38;;;8.30;99.90;;;;;;4992482;28;20453;-78
2024/01/30 10:21:30;;;;;;;38.97;35.10;;;8.40;99.90;;;;;;4968692;28;20045;-78
2024/01/30 10:23:57;;;;;;;37.22;33.80;;;8.30;99.90;;;;;;4989723;28;20050;-77
2024/01/30 10:26:24;;;;;;;37.35;33.72;;;8.30;99.90;;;;;;4958684;28;20131;-77
2024/01/30 10:28:51;;;;;;;39.22;35.42;;;8.20;99.90;;;;;;4987198;28;20053;-78
2024/01/30 10:31:20;;;;;;;38.60;34.75;;;8.20;99.90;;;;;;4969133;28;20083;-77
2024/01/30 10:33:47;;;;;;;39.63;35.75;;;8.10;99.90;;;;;;4971976;28;21162;-78
2024/01/30 10:36:15;;;;;;;38.92;35.22;;;8.20;99.90;;;;;;4973101;28;20727;-77
2024/01/30 10:38:48;;;;;;;41.67;37.33;;;8.10;99.90;;;;;;4971189;28;20129;-77
2024/01/30 10:41:19;;;;;;;37.00;33.47;;;8.20;99.90;;;;;;4968910;28;20139;-77
2024/01/30 10:43:58;;;;;;;37.53;33.70;;;8.20;99.90;;;;;;4968083;28;20050;-78
2024/01/30 10:46:31;;;;;;;35.20;31.95;;;8.10;99.90;;;;;;4983156;28;20049;-77
2024/01/30 10:48:59;;;;;;;38.28;34.58;;;8.20;99.90;;;;;;4961482;28;20042;-77
2024/01/30 10:51:28;;;;;;;39.15;35.00;;;8.20;99.90;;;;;;4953461;28;20074;-77
2024/01/30 10:53:56;;;;;;;35.00;31.67;;;8.20;99.90;;;;;;4986256;28;20046;-78
2024/01/30 10:56:25;;;;;;;36.58;32.90;;;8.10;99.90;;;;;;4985723;28;20101;-78
2024/01/30 10:58:53;;;;;;;36.70;33.20;;;8.10;99.90;;;;;;4964572;28;20962;-78
2024/01/30 11:01:25;;;;;;;35.97;32.47;;;8.10;99.90;;;;;;4955298;28;20046;-82
2024/01/30 11:03:52;;;;;;;35.35;32.10;;;8.20;99.90;;;;;;4963058;28;20061;-76
2024/01/30 11:06:22;;;;;;;34.92;31.88;;;8.10;99.90;;;;;;4986244;28;20129;-74
2024/01/30 11:09:10;;;;;;;37.05;33.45;;;8.10;99.90;;;;;;4983376;28;20058;-74
2024/01/30 11:11:50;;;;;;;36.47;32.88;;;8.20;99.90;;;;;;4951044;28;20197;-74
2024/01/30 11:14:24;;;;;;;37.08;33.22;;;8.30;99.90;;;;;;4978893;28;20045;-74
2024/01/30 11:16:50;;;;;;;36.53;33.17;;;8.30;99.90;;;;;;4961973;28;20046;-77
2024/01/30 11:19:27;;;;;;;36.63;33.22;;;8.50;99.90;;;;;;4976613;28;20062;-75
2024/01/30 11:21:56;;;;;;;36.28;33.00;;;8.70;99.90;;;;;;4983296;28;20053;-76
2024/01/30 11:24:24;;;;;;;35.38;32.00;;;8.90;99.90;;;;;;4984217;28;20080;-77
2024/01/30 11:27:00;;;;;;;36.60;33.00;;;9.20;99.90;;;;;;4973467;28;20057;-75
2024/01/30 11:29:28;;;;;;;35.95;32.65;;;9.30;99.90;;;;;;4989944;28;20069;-74
2024/01/30 11:31:58;;;;;;;37.55;33.88;;;9.30;99.90;;;;;;4986530;28;20432;-74
2024/01/30 11:34:26;;;;;;;36.42;32.85;;;9.40;99.90;;;;;;4972946;28;20112;-74
2024/01/30 11:36:59;;;;;;;37.05;33.60;;;9.70;99.90;;;;;;4973392;28;20036;-76
2024/01/30 11:39:27;;;;;;;35.60;32.50;;;9.90;99.90;;;;;;4975591;28;20708;-76
2024/01/30 11:41:55;;;;;;;38.88;35.42;;;10.10;99.90;;;;;;4970279;28;20101;-75
2024/01/30 11:44:25;;;;;;;36.53;33.15;;;10.10;99.90;;;;;;4968933;28;20037;-74
2024/01/30 11:46:52;;;;;;;34.70;31.65;;;10.20;99.90;;;;;;4966793;28;22117;-75
2024/01/30 11:49:19;;;;;;;35.53;32.42;;;10.20;99.90;;;;;;4992116;28;20569;-76
2024/01/30 11:51:49;;;;;;;36.22;32.97;;;10.40;99.90;;;;;;4969826;28;20139;-75
2024/01/30 11:54:16;;;;;;;36.13;33.08;;;10.50;99.90;;;;;;4959255;28;20056;-75
2024/01/30 11:56:43;;;;;;;36.08;32.88;;;10.50;99.90;;;;;;4984519;28;20120;-74
2024/01/30 11:59:10;;;;;;;34.58;31.67;;;10.50;99.90;;;;;;4968639;28;20501;-74
2024/01/30 12:01:37;;;;;;;35.50;32.42;;;10.70;99.90;;;;;;4965388;28;20081;-76
2024/01/30 12:04:08;;;;;;;34.97;31.75;;;10.80;99.90;;;;;;4974022;28;20141;-75
2024/01/30 12:06:36;;;;;;;35.72;32.63;;;11.00;99.90;;;;;;4965362;28;20071;-74
2024/01/30 12:09:10;;;;;;;36.22;33.28;;;11.10;99.90;;;;;;4982907;28;20054;-76
2024/01/30 12:11:47;;;;;;;38.28;35.28;;;11.40;99.90;;;;;;4954491;28;20124;-76
2024/01/30 12:14:14;;;;;;;38.38;35.20;;;11.60;99.90;;;;;;4950311;28;20045;-77
2024/01/30 12:16:41;;;;;;;38.42;35.00;;;11.60;99.90;;;;;;4964119;28;20033;-77
2024/01/30 12:19:08;;;;;;;37.97;34.53;;;11.60;99.90;;;;;;4980863;28;20128;-76
2024/01/30 12:21:36;;;;;;;40.95;37.55;;;11.70;99.90;;;;;;4967669;28;20038;-74
2024/01/30 12:24:02;;;;;;;41.65;38.00;;;11.70;99.90;;;;;;4976147;28;20097;-74
2024/01/30 12:26:29;;;;;;;39.83;35.97;;;11.70;99.90;;;;;;4965855;28;20069;-75
2024/01/30 12:29:01;;;;;;;37.50;34.20;;;11.70;99.90;;;;;;4965182;28;20065;-76
2024/01/30 12:31:28;;;;;;;38.45;35.28;;;11.70;99.90;;;;;;4991632;28;20685;-76
2024/01/30 12:33:56;;;;;;;38.20;34.90;;;11.90;99.90;;;;;;4999945;28;20130;-77
2024/01/30 12:36:25;;;;;;;37.17;33.80;;;12.00;99.90;;;;;;4973929;28;20097;-76